sensor_id;sensor_type;location;lat;lon;timestamp;P1;durP1;ratioP1;P2;durP2;ratioP2
25511;SDS011;13414;44.534;18.700;2022-11-22T00:00:36;120.30;;;70.00;;
25511;SDS011;13414;44.534;18.700;2022-11-22T00:03:04;148.55;;;83.40;;
25511;SDS011;13414;44.534;18.700;2022-11-22T00:05:31;134.18;;;75.63;;
25511;SDS011;13414;44.534;18.700;2022-11-22T00:07:58;129.57;;;72.25;;
25511;SDS011;13414;44.534;18.700;2022-11-22T00:10:26;121.03;;;65.03;;
25511;SDS011;13414;44.534;18.700;2022-11-22T00:12:53;127.35;;;69.10;;
25511;SDS011;13414;44.534;18.700;2022-11-22T00:15:20;128.27;;;69.82;;
25511;SDS011;13414;44.534;18.700;2022-11-22T00:17:49;116.72;;;62.97;;
25511;SDS011;13414;44.534;18.700;2022-11-22T00:20:16;115.35;;;64.53;;
25511;SDS011;13414;44.534;18.700;2022-11-22T00:22:44;129.15;;;74.22;;
25511;SDS011;13414;44.534;18.700;2022-11-22T00:25:11;139.95;;;77.53;;
25511;SDS011;13414;44.534;18.700;2022-11-22T00:27:39;154.60;;;84.28;;
25511;SDS011;13414;44.534;18.700;2022-11-22T00:30:06;129.75;;;72.95;;
25511;SDS011;13414;44.534;18.700;2022-11-22T00:32:34;112.80;;;63.78;;
25511;SDS011;13414;44.534;18.700;2022-11-22T00:35:04;115.20;;;63.45;;
25511;SDS011;13414;44.534;18.700;2022-11-22T00:37:33;115.82;;;63.80;;
25511;SDS011;13414;44.534;18.700;2022-11-22T00:40:00;112.63;;;64.07;;
25511;SDS011;13414;44.534;18.700;2022-11-22T00:42:28;112.78;;;62.58;;
25511;SDS011;13414;44.534;18.700;2022-11-22T00:44:56;117.57;;;64.07;;
25511;SDS011;13414;44.534;18.700;2022-11-22T00:47:23;109.13;;;60.88;;
25511;SDS011;13414;44.534;18.700;2022-11-22T00:49:50;99.88;;;55.88;;
25511;SDS011;13414;44.534;18.700;2022-11-22T00:52:19;104.78;;;60.78;;
25511;SDS011;13414;44.534;18.700;2022-11-22T00:54:46;119.88;;;63.03;;
25511;SDS011;13414;44.534;18.700;2022-11-22T00:57:14;117.65;;;64.78;;
25511;SDS011;13414;44.534;18.700;2022-11-22T00:59:41;119.65;;;66.43;;
25511;SDS011;13414;44.534;18.700;2022-11-22T01:02:08;114.78;;;65.43;;
25511;SDS011;13414;44.534;18.700;2022-11-22T01:04:36;143.48;;;79.22;;
25511;SDS011;13414;44.534;18.700;2022-11-22T01:07:03;151.73;;;84.07;;
25511;SDS011;13414;44.534;18.700;2022-11-22T01:09:32;132.55;;;72.35;;
25511;SDS011;13414;44.534;18.700;2022-11-22T01:12:00;116.70;;;62.65;;
25511;SDS011;13414;44.534;18.700;2022-11-22T01:14:27;121.00;;;69.10;;
25511;SDS011;13414;44.534;18.700;2022-11-22T01:16:54;81.97;;;48.33;;
25511;SDS011;13414;44.534;18.700;2022-11-22T01:19:22;90.90;;;52.03;;
25511;SDS011;13414;44.534;18.700;2022-11-22T01:21:49;115.18;;;64.05;;
25511;SDS011;13414;44.534;18.700;2022-11-22T01:24:16;109.07;;;61.55;;
25511;SDS011;13414;44.534;18.700;2022-11-22T01:26:45;118.28;;;63.47;;
25511;SDS011;13414;44.534;18.700;2022-11-22T01:29:12;107.78;;;58.08;;
25511;SDS011;13414;44.534;18.700;2022-11-22T01:31:39;104.03;;;59.50;;
25511;SDS011;13414;44.534;18.700;2022-11-22T01:34:07;113.03;;;62.15;;
25511;SDS011;13414;44.534;18.700;2022-11-22T01:36:34;178.23;;;92.95;;
25511;SDS011;13414;44.534;18.700;2022-11-22T01:39:01;107.60;;;61.25;;
25511;SDS011;13414;44.534;18.700;2022-11-22T01:41:29;94.20;;;52.47;;
25511;SDS011;13414;44.534;18.700;2022-11-22T01:46:50;81.45;;;48.25;;
25511;SDS011;13414;44.534;18.700;2022-11-22T01:49:22;74.32;;;44.33;;
25511;SDS011;13414;44.534;18.700;2022-11-22T01:51:54;102.75;;;59.00;;
25511;SDS011;13414;44.534;18.700;2022-11-22T01:54:26;97.57;;;57.50;;
25511;SDS011;13414;44.534;18.700;2022-11-22T01:56:58;92.72;;;58.00;;
25511;SDS011;13414;44.534;18.700;2022-11-22T01:59:31;94.40;;;56.03;;
25511;SDS011;13414;44.534;18.700;2022-11-22T02:02:01;94.13;;;55.30;;
25511;SDS011;13414;44.534;18.700;2022-11-22T02:04:29;96.47;;;57.08;;
25511;SDS011;13414;44.534;18.700;2022-11-22T02:06:58;92.00;;;54.35;;
25511;SDS011;13414;44.534;18.700;2022-11-22T02:09:31;78.72;;;50.58;;
25511;SDS011;13414;44.534;18.700;2022-11-22T02:12:01;84.65;;;53.90;;
25511;SDS011;13414;44.534;18.700;2022-11-22T02:14:32;97.63;;;59.85;;
25511;SDS011;13414;44.534;18.700;2022-11-22T02:17:00;94.88;;;56.67;;
25511;SDS011;13414;44.534;18.700;2022-11-22T02:19:30;97.43;;;56.72;;
25511;SDS011;13414;44.534;18.700;2022-11-22T02:22:05;87.78;;;51.03;;
25511;SDS011;13414;44.534;18.700;2022-11-22T02:24:44;83.07;;;47.80;;
25511;SDS011;13414;44.534;18.700;2022-11-22T02:27:18;75.60;;;44.55;;
25511;SDS011;13414;44.534;18.700;2022-11-22T02:29:45;74.63;;;44.28;;
25511;SDS011;13414;44.534;18.700;2022-11-22T02:32:12;69.60;;;40.92;;
25511;SDS011;13414;44.534;18.700;2022-11-22T02:34:40;63.88;;;38.00;;
25511;SDS011;13414;44.534;18.700;2022-11-22T02:37:09;88.75;;;50.17;;
25511;SDS011;13414;44.534;18.700;2022-11-22T02:39:38;76.78;;;45.63;;
25511;SDS011;13414;44.534;18.700;2022-11-22T02:42:07;99.75;;;56.65;;
25511;SDS011;13414;44.534;18.700;2022-11-22T02:44:36;90.78;;;53.20;;
25511;SDS011;13414;44.534;18.700;2022-11-22T02:47:04;89.68;;;50.75;;
25511;SDS011;13414;44.534;18.700;2022-11-22T02:49:31;100.72;;;58.17;;
25511;SDS011;13414;44.534;18.700;2022-11-22T02:51:58;87.75;;;51.45;;
25511;SDS011;13414;44.534;18.700;2022-11-22T02:54:25;85.05;;;47.35;;
25511;SDS011;13414;44.534;18.700;2022-11-22T02:56:53;77.40;;;44.70;;
25511;SDS011;13414;44.534;18.700;2022-11-22T02:59:20;68.72;;;40.42;;
25511;SDS011;13414;44.534;18.700;2022-11-22T03:01:48;87.43;;;48.03;;
25511;SDS011;13414;44.534;18.700;2022-11-22T03:04:16;81.63;;;45.08;;
25511;SDS011;13414;44.534;18.700;2022-11-22T03:06:50;84.18;;;46.90;;
25511;SDS011;13414;44.534;18.700;2022-11-22T03:09:19;68.90;;;38.50;;
25511;SDS011;13414;44.534;18.700;2022-11-22T03:11:46;70.72;;;39.22;;
25511;SDS011;13414;44.534;18.700;2022-11-22T03:14:13;72.85;;;41.63;;
25511;SDS011;13414;44.534;18.700;2022-11-22T03:16:41;81.10;;;45.65;;
25511;SDS011;13414;44.534;18.700;2022-11-22T03:19:10;80.18;;;44.70;;
25511;SDS011;13414;44.534;18.700;2022-11-22T03:21:38;73.78;;;43.35;;
25511;SDS011;13414;44.534;18.700;2022-11-22T03:24:06;55.90;;;32.95;;
25511;SDS011;13414;44.534;18.700;2022-11-22T03:26:35;67.03;;;41.22;;
25511;SDS011;13414;44.534;18.700;2022-11-22T03:29:02;65.55;;;38.08;;
25511;SDS011;13414;44.534;18.700;2022-11-22T03:31:30;71.43;;;42.08;;
25511;SDS011;13414;44.534;18.700;2022-11-22T03:33:58;70.53;;;40.13;;
25511;SDS011;13414;44.534;18.700;2022-11-22T03:36:26;61.40;;;36.35;;
25511;SDS011;13414;44.534;18.700;2022-11-22T03:38:54;69.13;;;42.22;;
25511;SDS011;13414;44.534;18.700;2022-11-22T03:41:22;69.80;;;39.35;;
25511;SDS011;13414;44.534;18.700;2022-11-22T03:43:49;64.25;;;37.17;;
25511;SDS011;13414;44.534;18.700;2022-11-22T03:46:16;66.45;;;38.13;;
25511;SDS011;13414;44.534;18.700;2022-11-22T03:48:44;73.70;;;37.75;;
25511;SDS011;13414;44.534;18.700;2022-11-22T03:51:12;64.10;;;37.22;;
25511;SDS011;13414;44.534;18.700;2022-11-22T03:53:40;68.72;;;36.67;;
25511;SDS011;13414;44.534;18.700;2022-11-22T03:56:08;52.20;;;30.98;;
25511;SDS011;13414;44.534;18.700;2022-11-22T03:58:35;52.08;;;29.40;;
25511;SDS011;13414;44.534;18.700;2022-11-22T04:01:03;67.20;;;37.83;;
25511;SDS011;13414;44.534;18.700;2022-11-22T04:03:30;57.38;;;35.40;;
25511;SDS011;13414;44.534;18.700;2022-11-22T04:05:57;54.92;;;32.58;;
25511;SDS011;13414;44.534;18.700;2022-11-22T04:08:25;44.42;;;28.08;;
25511;SDS011;13414;44.534;18.700;2022-11-22T04:10:53;53.75;;;32.03;;
25511;SDS011;13414;44.534;18.700;2022-11-22T04:13:21;51.72;;;30.17;;
25511;SDS011;13414;44.534;18.700;2022-11-22T04:16:08;61.53;;;36.53;;
25511;SDS011;13414;44.534;18.700;2022-11-22T04:18:34;51.70;;;30.23;;
25511;SDS011;13414;44.534;18.700;2022-11-22T04:21:02;57.30;;;33.30;;
25511;SDS011;13414;44.534;18.700;2022-11-22T04:23:49;61.35;;;36.50;;
25511;SDS011;13414;44.534;18.700;2022-11-22T04:26:31;54.78;;;32.58;;
25511;SDS011;13414;44.534;18.700;2022-11-22T04:28:59;50.92;;;30.92;;
25511;SDS011;13414;44.534;18.700;2022-11-22T04:31:26;54.10;;;33.00;;
25511;SDS011;13414;44.534;18.700;2022-11-22T04:34:10;61.85;;;35.42;;
25511;SDS011;13414;44.534;18.700;2022-11-22T04:36:38;52.25;;;31.35;;
25511;SDS011;13414;44.534;18.700;2022-11-22T04:39:05;58.20;;;33.67;;
25511;SDS011;13414;44.534;18.700;2022-11-22T04:41:34;52.33;;;30.38;;
25511;SDS011;13414;44.534;18.700;2022-11-22T04:44:01;42.53;;;25.02;;
25511;SDS011;13414;44.534;18.700;2022-11-22T04:46:46;48.78;;;27.33;;
25511;SDS011;13414;44.534;18.700;2022-11-22T04:49:13;43.67;;;24.55;;
25511;SDS011;13414;44.534;18.700;2022-11-22T04:51:40;42.03;;;24.80;;
25511;SDS011;13414;44.534;18.700;2022-11-22T04:54:30;37.65;;;22.48;;
25511;SDS011;13414;44.534;18.700;2022-11-22T04:56:59;40.20;;;24.55;;
25511;SDS011;13414;44.534;18.700;2022-11-22T04:59:26;43.63;;;26.83;;
25511;SDS011;13414;44.534;18.700;2022-11-22T05:01:54;47.25;;;27.90;;
25511;SDS011;13414;44.534;18.700;2022-11-22T05:04:21;51.38;;;27.63;;
25511;SDS011;13414;44.534;18.700;2022-11-22T05:06:48;49.47;;;27.52;;
25511;SDS011;13414;44.534;18.700;2022-11-22T05:09:16;54.83;;;31.38;;
25511;SDS011;13414;44.534;18.700;2022-11-22T05:11:43;57.92;;;32.00;;
25511;SDS011;13414;44.534;18.700;2022-11-22T05:14:12;67.18;;;37.63;;
25511;SDS011;13414;44.534;18.700;2022-11-22T05:16:39;60.42;;;33.75;;
25511;SDS011;13414;44.534;18.700;2022-11-22T05:19:07;75.00;;;37.50;;
25511;SDS011;13414;44.534;18.700;2022-11-22T05:21:34;66.47;;;39.10;;
25511;SDS011;13414;44.534;18.700;2022-11-22T05:24:02;76.28;;;40.55;;
25511;SDS011;13414;44.534;18.700;2022-11-22T05:26:29;72.75;;;42.78;;
25511;SDS011;13414;44.534;18.700;2022-11-22T05:28:57;71.30;;;38.38;;
25511;SDS011;13414;44.534;18.700;2022-11-22T05:31:31;68.47;;;39.22;;
25511;SDS011;13414;44.534;18.700;2022-11-22T05:33:59;63.15;;;37.60;;
25511;SDS011;13414;44.534;18.700;2022-11-22T05:36:26;63.40;;;36.50;;
25511;SDS011;13414;44.534;18.700;2022-11-22T05:38:56;84.28;;;46.42;;
25511;SDS011;13414;44.534;18.700;2022-11-22T05:41:23;75.80;;;41.65;;
25511;SDS011;13414;44.534;18.700;2022-11-22T05:43:52;68.55;;;38.53;;
25511;SDS011;13414;44.534;18.700;2022-11-22T05:46:21;56.10;;;33.85;;
25511;SDS011;13414;44.534;18.700;2022-11-22T05:48:52;54.53;;;32.20;;
25511;SDS011;13414;44.534;18.700;2022-11-22T05:51:21;54.15;;;32.38;;
25511;SDS011;13414;44.534;18.700;2022-11-22T05:53:49;65.75;;;38.03;;
25511;SDS011;13414;44.534;18.700;2022-11-22T05:56:17;83.03;;;47.72;;
25511;SDS011;13414;44.534;18.700;2022-11-22T05:58:47;83.60;;;48.17;;
25511;SDS011;13414;44.534;18.700;2022-11-22T06:01:15;93.32;;;52.47;;
25511;SDS011;13414;44.534;18.700;2022-11-22T06:03:44;71.95;;;41.10;;
25511;SDS011;13414;44.534;18.700;2022-11-22T06:06:14;76.40;;;43.95;;
25511;SDS011;13414;44.534;18.700;2022-11-22T06:08:42;125.60;;;73.00;;
25511;SDS011;13414;44.534;18.700;2022-11-22T06:11:13;101.68;;;59.60;;
25511;SDS011;13414;44.534;18.700;2022-11-22T06:13:42;112.53;;;64.70;;
25511;SDS011;13414;44.534;18.700;2022-11-22T06:16:11;86.30;;;48.65;;
25511;SDS011;13414;44.534;18.700;2022-11-22T06:18:38;96.55;;;54.05;;
25511;SDS011;13414;44.534;18.700;2022-11-22T06:21:06;94.35;;;49.20;;
25511;SDS011;13414;44.534;18.700;2022-11-22T06:23:38;114.03;;;59.83;;
25511;SDS011;13414;44.534;18.700;2022-11-22T06:26:06;105.30;;;57.65;;
25511;SDS011;13414;44.534;18.700;2022-11-22T06:28:35;80.55;;;42.90;;
25511;SDS011;13414;44.534;18.700;2022-11-22T06:31:05;82.68;;;43.25;;
25511;SDS011;13414;44.534;18.700;2022-11-22T06:33:33;81.85;;;43.88;;
25511;SDS011;13414;44.534;18.700;2022-11-22T06:36:01;82.40;;;45.20;;
25511;SDS011;13414;44.534;18.700;2022-11-22T06:38:29;89.40;;;48.10;;
25511;SDS011;13414;44.534;18.700;2022-11-22T06:40:59;117.18;;;63.35;;
25511;SDS011;13414;44.534;18.700;2022-11-22T06:43:27;118.03;;;63.95;;
25511;SDS011;13414;44.534;18.700;2022-11-22T06:45:55;112.45;;;61.75;;
25511;SDS011;13414;44.534;18.700;2022-11-22T06:48:22;113.85;;;63.20;;
25511;SDS011;13414;44.534;18.700;2022-11-22T06:50:50;122.50;;;65.88;;
25511;SDS011;13414;44.534;18.700;2022-11-22T06:53:17;131.68;;;70.82;;
25511;SDS011;13414;44.534;18.700;2022-11-22T06:55:44;146.85;;;83.80;;
25511;SDS011;13414;44.534;18.700;2022-11-22T06:58:13;136.90;;;75.03;;
25511;SDS011;13414;44.534;18.700;2022-11-22T07:00:40;178.10;;;97.10;;
25511;SDS011;13414;44.534;18.700;2022-11-22T07:03:07;198.90;;;106.40;;
25511;SDS011;13414;44.534;18.700;2022-11-22T07:05:35;216.00;;;118.20;;
25511;SDS011;13414;44.534;18.700;2022-11-22T07:08:02;176.60;;;103.13;;
25511;SDS011;13414;44.534;18.700;2022-11-22T07:10:29;200.20;;;120.80;;
25511;SDS011;13414;44.534;18.700;2022-11-22T07:12:57;207.77;;;123.53;;
25511;SDS011;13414;44.534;18.700;2022-11-22T07:15:25;172.18;;;100.45;;
25511;SDS011;13414;44.534;18.700;2022-11-22T07:17:53;222.73;;;127.57;;
25511;SDS011;13414;44.534;18.700;2022-11-22T07:20:20;216.07;;;119.70;;
25511;SDS011;13414;44.534;18.700;2022-11-22T07:22:47;216.85;;;120.43;;
25511;SDS011;13414;44.534;18.700;2022-11-22T07:25:15;198.75;;;107.97;;
25511;SDS011;13414;44.534;18.700;2022-11-22T07:27:42;171.77;;;93.72;;
25511;SDS011;13414;44.534;18.700;2022-11-22T07:30:10;165.95;;;92.85;;
25511;SDS011;13414;44.534;18.700;2022-11-22T07:32:39;157.15;;;87.45;;
25511;SDS011;13414;44.534;18.700;2022-11-22T07:35:06;146.65;;;84.97;;
25511;SDS011;13414;44.534;18.700;2022-11-22T07:37:34;144.55;;;79.65;;
25511;SDS011;13414;44.534;18.700;2022-11-22T07:40:01;152.80;;;87.55;;
25511;SDS011;13414;44.534;18.700;2022-11-22T07:42:29;136.77;;;79.70;;
25511;SDS011;13414;44.534;18.700;2022-11-22T07:44:57;144.32;;;84.70;;
25511;SDS011;13414;44.534;18.700;2022-11-22T07:47:24;136.57;;;80.55;;
25511;SDS011;13414;44.534;18.700;2022-11-22T07:49:53;147.35;;;85.65;;
25511;SDS011;13414;44.534;18.700;2022-11-22T07:52:20;154.57;;;93.40;;
25511;SDS011;13414;44.534;18.700;2022-11-22T07:54:47;146.27;;;89.80;;
25511;SDS011;13414;44.534;18.700;2022-11-22T07:57:14;128.85;;;79.78;;
25511;SDS011;13414;44.534;18.700;2022-11-22T07:59:42;139.60;;;88.32;;
25511;SDS011;13414;44.534;18.700;2022-11-22T08:02:09;135.60;;;84.00;;
25511;SDS011;13414;44.534;18.700;2022-11-22T08:04:37;132.80;;;83.13;;
25511;SDS011;13414;44.534;18.700;2022-11-22T08:07:06;162.15;;;97.95;;
25511;SDS011;13414;44.534;18.700;2022-11-22T08:09:33;163.93;;;98.43;;
25511;SDS011;13414;44.534;18.700;2022-11-22T08:12:01;158.13;;;97.28;;
25511;SDS011;13414;44.534;18.700;2022-11-22T08:14:29;166.75;;;103.28;;
25511;SDS011;13414;44.534;18.700;2022-11-22T08:16:56;222.70;;;132.43;;
25511;SDS011;13414;44.534;18.700;2022-11-22T08:19:23;206.18;;;126.05;;
25511;SDS011;13414;44.534;18.700;2022-11-22T08:21:51;207.50;;;121.60;;
25511;SDS011;13414;44.534;18.700;2022-11-22T08:24:19;173.45;;;111.72;;
25511;SDS011;13414;44.534;18.700;2022-11-22T08:26:47;175.20;;;108.13;;
25511;SDS011;13414;44.534;18.700;2022-11-22T08:29:14;162.02;;;105.43;;
25511;SDS011;13414;44.534;18.700;2022-11-22T08:31:41;210.20;;;130.60;;
25511;SDS011;13414;44.534;18.700;2022-11-22T08:34:09;145.88;;;90.60;;
25511;SDS011;13414;44.534;18.700;2022-11-22T08:36:36;146.25;;;91.63;;
25511;SDS011;13414;44.534;18.700;2022-11-22T08:39:03;93.15;;;57.50;;
25511;SDS011;13414;44.534;18.700;2022-11-22T08:41:32;88.53;;;54.03;;
25511;SDS011;13414;44.534;18.700;2022-11-22T08:43:59;82.53;;;49.28;;
25511;SDS011;13414;44.534;18.700;2022-11-22T08:46:26;78.20;;;47.67;;
25511;SDS011;13414;44.534;18.700;2022-11-22T08:48:54;67.05;;;40.58;;
25511;SDS011;13414;44.534;18.700;2022-11-22T08:51:21;91.65;;;53.97;;
25511;SDS011;13414;44.534;18.700;2022-11-22T08:53:48;115.65;;;72.68;;
25511;SDS011;13414;44.534;18.700;2022-11-22T08:56:15;128.65;;;83.65;;
25511;SDS011;13414;44.534;18.700;2022-11-22T08:58:44;124.47;;;81.50;;
25511;SDS011;13414;44.534;18.700;2022-11-22T09:01:12;128.88;;;82.25;;
25511;SDS011;13414;44.534;18.700;2022-11-22T09:03:41;124.35;;;80.05;;
25511;SDS011;13414;44.534;18.700;2022-11-22T09:06:10;128.50;;;80.65;;
25511;SDS011;13414;44.534;18.700;2022-11-22T09:08:38;118.05;;;73.88;;
25511;SDS011;13414;44.534;18.700;2022-11-22T09:11:06;117.75;;;76.70;;
25511;SDS011;13414;44.534;18.700;2022-11-22T09:13:35;110.30;;;70.07;;
25511;SDS011;13414;44.534;18.700;2022-11-22T09:16:04;100.80;;;65.57;;
25511;SDS011;13414;44.534;18.700;2022-11-22T09:18:34;110.22;;;70.18;;
25511;SDS011;13414;44.534;18.700;2022-11-22T09:21:02;104.10;;;67.18;;
25511;SDS011;13414;44.534;18.700;2022-11-22T09:23:31;90.43;;;55.67;;
25511;SDS011;13414;44.534;18.700;2022-11-22T09:26:01;98.72;;;64.10;;
25511;SDS011;13414;44.534;18.700;2022-11-22T09:28:30;103.00;;;65.93;;
25511;SDS011;13414;44.534;18.700;2022-11-22T09:30:58;99.22;;;62.20;;
25511;SDS011;13414;44.534;18.700;2022-11-22T09:33:27;90.75;;;57.38;;
25511;SDS011;13414;44.534;18.700;2022-11-22T09:35:59;66.63;;;41.65;;
25511;SDS011;13414;44.534;18.700;2022-11-22T09:38:27;41.53;;;24.40;;
25511;SDS011;13414;44.534;18.700;2022-11-22T09:40:54;34.38;;;21.10;;
25511;SDS011;13414;44.534;18.700;2022-11-22T09:43:24;29.83;;;19.35;;
25511;SDS011;13414;44.534;18.700;2022-11-22T09:49:06;23.60;;;13.45;;
25511;SDS011;13414;44.534;18.700;2022-11-22T09:51:48;22.95;;;12.15;;
25511;SDS011;13414;44.534;18.700;2022-11-22T09:54:20;18.65;;;12.30;;
25511;SDS011;13414;44.534;18.700;2022-11-22T09:56:53;17.50;;;11.15;;
25511;SDS011;13414;44.534;18.700;2022-11-22T09:59:25;19.95;;;11.52;;
25511;SDS011;13414;44.534;18.700;2022-11-22T10:01:58;18.88;;;11.30;;
25511;SDS011;13414;44.534;18.700;2022-11-22T10:04:33;15.43;;;10.38;;
25511;SDS011;13414;44.534;18.700;2022-11-22T10:07:04;25.23;;;12.52;;
25511;SDS011;13414;44.534;18.700;2022-11-22T10:09:36;23.92;;;12.93;;
25511;SDS011;13414;44.534;18.700;2022-11-22T10:12:09;20.63;;;11.98;;
25511;SDS011;13414;44.534;18.700;2022-11-22T10:14:43;19.30;;;11.52;;
25511;SDS011;13414;44.534;18.700;2022-11-22T10:17:22;14.65;;;9.40;;
25511;SDS011;13414;44.534;18.700;2022-11-22T10:20:00;13.85;;;8.45;;
25511;SDS011;13414;44.534;18.700;2022-11-22T10:22:32;14.60;;;9.27;;
25511;SDS011;13414;44.534;18.700;2022-11-22T10:25:01;12.07;;;8.07;;
25511;SDS011;13414;44.534;18.700;2022-11-22T10:27:35;13.10;;;7.93;;
25511;SDS011;13414;44.534;18.700;2022-11-22T10:30:04;12.63;;;7.78;;
25511;SDS011;13414;44.534;18.700;2022-11-22T10:32:38;11.85;;;7.60;;
25511;SDS011;13414;44.534;18.700;2022-11-22T10:35:20;12.77;;;7.85;;
25511;SDS011;13414;44.534;18.700;2022-11-22T10:38:02;11.27;;;7.78;;
25511;SDS011;13414;44.534;18.700;2022-11-22T10:40:42;13.73;;;7.38;;
25511;SDS011;13414;44.534;18.700;2022-11-22T10:43:27;11.00;;;6.45;;
25511;SDS011;13414;44.534;18.700;2022-11-22T10:46:03;12.60;;;6.13;;
25511;SDS011;13414;44.534;18.700;2022-11-22T10:48:40;13.27;;;7.45;;
25511;SDS011;13414;44.534;18.700;2022-11-22T10:51:17;12.23;;;7.28;;
25511;SDS011;13414;44.534;18.700;2022-11-22T10:53:51;11.23;;;6.40;;
25511;SDS011;13414;44.534;18.700;2022-11-22T10:56:29;12.07;;;6.85;;
25511;SDS011;13414;44.534;18.700;2022-11-22T10:59:04;16.13;;;9.02;;
25511;SDS011;13414;44.534;18.700;2022-11-22T11:01:51;12.48;;;6.70;;
25511;SDS011;13414;44.534;18.700;2022-11-22T11:04:26;14.02;;;7.80;;
25511;SDS011;13414;44.534;18.700;2022-11-22T11:06:59;10.55;;;6.00;;
25511;SDS011;13414;44.534;18.700;2022-11-22T11:09:31;13.10;;;6.63;;
25511;SDS011;13414;44.534;18.700;2022-11-22T11:12:03;12.40;;;7.50;;
25511;SDS011;13414;44.534;18.700;2022-11-22T11:14:38;12.23;;;6.65;;
25511;SDS011;13414;44.534;18.700;2022-11-22T11:17:11;10.60;;;5.93;;
25511;SDS011;13414;44.534;18.700;2022-11-22T11:19:42;11.68;;;5.95;;
25511;SDS011;13414;44.534;18.700;2022-11-22T11:22:15;12.82;;;7.70;;
25511;SDS011;13414;44.534;18.700;2022-11-22T11:24:46;10.35;;;4.97;;
25511;SDS011;13414;44.534;18.700;2022-11-22T11:27:14;11.63;;;6.07;;
25511;SDS011;13414;44.534;18.700;2022-11-22T11:29:43;13.40;;;5.43;;
25511;SDS011;13414;44.534;18.700;2022-11-22T11:32:13;8.80;;;4.97;;
25511;SDS011;13414;44.534;18.700;2022-11-22T11:34:46;10.45;;;5.68;;
25511;SDS011;13414;44.534;18.700;2022-11-22T11:39:50;9.52;;;5.40;;
25511;SDS011;13414;44.534;18.700;2022-11-22T11:42:24;9.35;;;4.70;;
25511;SDS011;13414;44.534;18.700;2022-11-22T11:44:53;9.00;;;5.32;;
25511;SDS011;13414;44.534;18.700;2022-11-22T11:47:43;8.75;;;5.40;;
25511;SDS011;13414;44.534;18.700;2022-11-22T11:50:15;7.93;;;4.70;;
25511;SDS011;13414;44.534;18.700;2022-11-22T11:52:49;8.60;;;4.65;;
25511;SDS011;13414;44.534;18.700;2022-11-22T11:55:18;9.13;;;5.00;;
25511;SDS011;13414;44.534;18.700;2022-11-22T11:57:45;9.57;;;3.85;;
25511;SDS011;13414;44.534;18.700;2022-11-22T12:00:19;7.85;;;4.25;;
25511;SDS011;13414;44.534;18.700;2022-11-22T12:02:53;8.97;;;4.57;;
25511;SDS011;13414;44.534;18.700;2022-11-22T12:05:24;11.70;;;5.45;;
25511;SDS011;13414;44.534;18.700;2022-11-22T12:07:55;8.60;;;5.13;;
25511;SDS011;13414;44.534;18.700;2022-11-22T12:10:26;9.10;;;5.03;;
25511;SDS011;13414;44.534;18.700;2022-11-22T12:12:57;9.50;;;5.20;;
25511;SDS011;13414;44.534;18.700;2022-11-22T12:15:31;13.05;;;6.20;;
25511;SDS011;13414;44.534;18.700;2022-11-22T12:18:10;10.57;;;5.80;;
25511;SDS011;13414;44.534;18.700;2022-11-22T12:20:49;11.48;;;6.70;;
25511;SDS011;13414;44.534;18.700;2022-11-22T12:23:24;12.13;;;6.70;;
25511;SDS011;13414;44.534;18.700;2022-11-22T12:25:57;13.70;;;6.27;;
25511;SDS011;13414;44.534;18.700;2022-11-22T12:28:25;10.90;;;5.78;;
25511;SDS011;13414;44.534;18.700;2022-11-22T12:30:54;13.13;;;5.63;;
25511;SDS011;13414;44.534;18.700;2022-11-22T12:33:26;9.30;;;4.68;;
25511;SDS011;13414;44.534;18.700;2022-11-22T12:35:56;8.93;;;4.88;;
25511;SDS011;13414;44.534;18.700;2022-11-22T12:38:25;9.13;;;4.40;;
25511;SDS011;13414;44.534;18.700;2022-11-22T12:40:58;10.40;;;5.53;;
25511;SDS011;13414;44.534;18.700;2022-11-22T12:43:39;9.55;;;5.57;;
25511;SDS011;13414;44.534;18.700;2022-11-22T12:46:18;9.20;;;5.15;;
25511;SDS011;13414;44.534;18.700;2022-11-22T12:48:49;10.65;;;5.00;;
25511;SDS011;13414;44.534;18.700;2022-11-22T12:51:25;14.18;;;6.90;;
25511;SDS011;13414;44.534;18.700;2022-11-22T12:54:15;16.00;;;7.38;;
25511;SDS011;13414;44.534;18.700;2022-11-22T12:56:52;13.50;;;7.10;;
25511;SDS011;13414;44.534;18.700;2022-11-22T12:59:27;17.42;;;9.02;;
25511;SDS011;13414;44.534;18.700;2022-11-22T13:02:11;11.48;;;5.80;;
25511;SDS011;13414;44.534;18.700;2022-11-22T13:04:46;15.18;;;6.00;;
25511;SDS011;13414;44.534;18.700;2022-11-22T13:07:24;13.38;;;5.70;;
25511;SDS011;13414;44.534;18.700;2022-11-22T13:10:02;13.35;;;4.80;;
25511;SDS011;13414;44.534;18.700;2022-11-22T13:12:35;8.57;;;4.43;;
25511;SDS011;13414;44.534;18.700;2022-11-22T13:15:08;11.00;;;5.30;;
25511;SDS011;13414;44.534;18.700;2022-11-22T13:17:39;10.48;;;5.28;;
25511;SDS011;13414;44.534;18.700;2022-11-22T13:20:07;12.75;;;5.43;;
25511;SDS011;13414;44.534;18.700;2022-11-22T13:22:42;13.48;;;5.20;;
25511;SDS011;13414;44.534;18.700;2022-11-22T13:25:31;10.20;;;6.05;;
25511;SDS011;13414;44.534;18.700;2022-11-22T13:28:11;11.70;;;5.50;;
25511;SDS011;13414;44.534;18.700;2022-11-22T13:33:49;13.85;;;6.95;;
25511;SDS011;13414;44.534;18.700;2022-11-22T13:39:15;14.40;;;7.13;;
25511;SDS011;13414;44.534;18.700;2022-11-22T13:47:45;12.82;;;6.45;;
25511;SDS011;13414;44.534;18.700;2022-11-22T13:53:41;13.90;;;5.90;;
25511;SDS011;13414;44.534;18.700;2022-11-22T13:59:24;14.07;;;7.68;;
25511;SDS011;13414;44.534;18.700;2022-11-22T14:01:56;13.68;;;6.70;;
25511;SDS011;13414;44.534;18.700;2022-11-22T14:04:36;14.10;;;7.30;;
25511;SDS011;13414;44.534;18.700;2022-11-22T14:07:21;8.63;;;5.07;;
25511;SDS011;13414;44.534;18.700;2022-11-22T14:10:04;10.70;;;5.10;;
25511;SDS011;13414;44.534;18.700;2022-11-22T14:16:08;12.70;;;6.43;;
25511;SDS011;13414;44.534;18.700;2022-11-22T14:19:03;8.63;;;4.97;;
25511;SDS011;13414;44.534;18.700;2022-11-22T15:47:56;26.58;;;13.40;;
25511;SDS011;13414;44.534;18.700;2022-11-22T15:50:35;43.08;;;19.13;;
25511;SDS011;13414;44.534;18.700;2022-11-22T15:53:17;38.10;;;17.17;;
25511;SDS011;13414;44.534;18.700;2022-11-22T15:55:54;29.02;;;14.52;;
25511;SDS011;13414;44.534;18.700;2022-11-22T15:58:23;30.02;;;14.98;;
25511;SDS011;13414;44.534;18.700;2022-11-22T16:00:55;25.90;;;15.32;;
25511;SDS011;13414;44.534;18.700;2022-11-22T16:03:30;31.50;;;18.38;;
25511;SDS011;13414;44.534;18.700;2022-11-22T16:06:03;32.95;;;18.27;;
25511;SDS011;13414;44.534;18.700;2022-11-22T16:08:35;32.33;;;16.60;;
25511;SDS011;13414;44.534;18.700;2022-11-22T16:11:03;24.92;;;14.65;;
25511;SDS011;13414;44.534;18.700;2022-11-22T16:13:32;26.02;;;14.70;;
25511;SDS011;13414;44.534;18.700;2022-11-22T16:16:16;28.35;;;16.58;;
25511;SDS011;13414;44.534;18.700;2022-11-22T16:18:48;24.58;;;14.15;;
25511;SDS011;13414;44.534;18.700;2022-11-22T16:21:18;23.25;;;12.73;;
25511;SDS011;13414;44.534;18.700;2022-11-22T16:23:46;18.20;;;10.65;;